sensor_id;sensor_type;location;lat;lon;timestamp;temperature;humidity
18773;DHT22;9515;50.810;4.418;2022-08-02T00:01:29;22.40;99.90
18773;DHT22;9515;50.810;4.418;2022-08-02T00:03:55;22.40;99.90
18773;DHT22;9515;50.810;4.418;2022-08-02T00:06:20;22.20;99.90
18773;DHT22;9515;50.810;4.418;2022-08-02T00:08:46;22.20;99.90
18773;DHT22;9515;50.810;4.418;2022-08-02T00:11:11;22.20;99.90
18773;DHT22;9515;50.810;4.418;2022-08-02T00:13:37;22.00;99.90
18773;DHT22;9515;50.810;4.418;2022-08-02T00:16:03;22.00;99.90
18773;DHT22;9515;50.810;4.418;2022-08-02T00:18:29;21.80;99.90
18773;DHT22;9515;50.810;4.418;2022-08-02T00:20:55;21.90;99.90
18773;DHT22;9515;50.810;4.418;2022-08-02T00:23:20;21.90;99.90
18773;DHT22;9515;50.810;4.418;2022-08-02T00:25:46;21.90;99.90
18773;DHT22;9515;50.810;4.418;2022-08-02T00:28:12;21.60;99.90
18773;DHT22;9515;50.810;4.418;2022-08-02T00:30:37;21.70;99.90
18773;DHT22;9515;50.810;4.418;2022-08-02T00:33:03;21.70;99.90
18773;DHT22;9515;50.810;4.418;2022-08-02T00:35:33;21.70;99.90
18773;DHT22;9515;50.810;4.418;2022-08-02T00:37:59;21.70;99.90
18773;DHT22;9515;50.810;4.418;2022-08-02T00:40:25;21.80;99.90
18773;DHT22;9515;50.810;4.418;2022-08-02T00:43:10;21.90;99.90
18773;DHT22;9515;50.810;4.418;2022-08-02T00:45:37;21.80;99.90
18773;DHT22;9515;50.810;4.418;2022-08-02T00:48:05;21.80;99.90
18773;DHT22;9515;50.810;4.418;2022-08-02T00:50:31;21.80;99.90
18773;DHT22;9515;50.810;4.418;2022-08-02T00:52:58;21.80;99.90
18773;DHT22;9515;50.810;4.418;2022-08-02T00:55:25;21.80;99.90
18773;DHT22;9515;50.810;4.418;2022-08-02T00:57:51;21.70;99.90
18773;DHT22;9515;50.810;4.418;2022-08-02T01:00:17;21.80;99.90
18773;DHT22;9515;50.810;4.418;2022-08-02T01:02:43;21.90;99.90
18773;DHT22;9515;50.810;4.418;2022-08-02T01:05:09;22.00;99.90
18773;DHT22;9515;50.810;4.418;2022-08-02T01:07:35;21.90;99.90
18773;DHT22;9515;50.810;4.418;2022-08-02T01:10:00;22.00;99.90
18773;DHT22;9515;50.810;4.418;2022-08-02T01:12:27;22.10;99.90
18773;DHT22;9515;50.810;4.418;2022-08-02T01:15:04;22.20;99.90
18773;DHT22;9515;50.810;4.418;2022-08-02T01:30:43;21.80;99.90
18773;DHT22;9515;50.810;4.418;2022-08-02T01:33:12;21.80;99.90
18773;DHT22;9515;50.810;4.418;2022-08-02T01:35:44;21.70;99.90
18773;DHT22;9515;50.810;4.418;2022-08-02T01:38:15;21.30;99.90
18773;DHT22;9515;50.810;4.418;2022-08-02T01:40:43;21.10;99.90
18773;DHT22;9515;50.810;4.418;2022-08-02T01:43:10;21.10;99.90
18773;DHT22;9515;50.810;4.418;2022-08-02T01:45:40;21.20;99.90
18773;DHT22;9515;50.810;4.418;2022-08-02T01:48:07;21.20;99.90
18773;DHT22;9515;50.810;4.418;2022-08-02T01:50:35;21.20;99.90
18773;DHT22;9515;50.810;4.418;2022-08-02T01:53:05;20.90;99.90
18773;DHT22;9515;50.810;4.418;2022-08-02T01:55:40;20.80;99.90
18773;DHT22;9515;50.810;4.418;2022-08-02T01:58:08;20.80;99.90
18773;DHT22;9515;50.810;4.418;2022-08-02T02:00:39;20.90;99.90
18773;DHT22;9515;50.810;4.418;2022-08-02T02:03:09;20.90;99.90
18773;DHT22;9515;50.810;4.418;2022-08-02T02:05:37;21.10;99.90
18773;DHT22;9515;50.810;4.418;2022-08-02T02:08:05;21.00;99.90
18773;DHT22;9515;50.810;4.418;2022-08-02T02:10:34;21.00;99.90
18773;DHT22;9515;50.810;4.418;2022-08-02T02:13:05;21.10;99.90
18773;DHT22;9515;50.810;4.418;2022-08-02T02:15:33;21.30;99.90
18773;DHT22;9515;50.810;4.418;2022-08-02T02:18:00;20.90;99.90
18773;DHT22;9515;50.810;4.418;2022-08-02T02:20:27;21.00;99.90
18773;DHT22;9515;50.810;4.418;2022-08-02T02:22:53;21.10;99.90
18773;DHT22;9515;50.810;4.418;2022-08-02T02:25:21;21.20;99.90
18773;DHT22;9515;50.810;4.418;2022-08-02T02:28:11;20.80;99.90
18773;DHT22;9515;50.810;4.418;2022-08-02T02:30:37;21.10;99.90
18773;DHT22;9515;50.810;4.418;2022-08-02T02:33:05;21.20;99.90
18773;DHT22;9515;50.810;4.418;2022-08-02T02:35:34;21.30;99.90
18773;DHT22;9515;50.810;4.418;2022-08-02T02:38:02;21.60;99.90
18773;DHT22;9515;50.810;4.418;2022-08-02T02:40:30;21.90;99.90
18773;DHT22;9515;50.810;4.418;2022-08-02T02:42:58;21.80;99.90
18773;DHT22;9515;50.810;4.418;2022-08-02T02:45:25;21.90;99.90
18773;DHT22;9515;50.810;4.418;2022-08-02T02:47:52;22.00;99.90
18773;DHT22;9515;50.810;4.418;2022-08-02T02:50:20;22.10;99.90
18773;DHT22;9515;50.810;4.418;2022-08-02T02:52:47;22.10;99.90
18773;DHT22;9515;50.810;4.418;2022-08-02T02:55:13;22.10;99.90
18773;DHT22;9515;50.810;4.418;2022-08-02T02:57:40;22.10;99.90
18773;DHT22;9515;50.810;4.418;2022-08-02T03:00:09;22.00;99.90
18773;DHT22;9515;50.810;4.418;2022-08-02T03:02:36;21.90;99.90
18773;DHT22;9515;50.810;4.418;2022-08-02T03:05:04;22.00;99.90
18773;DHT22;9515;50.810;4.418;2022-08-02T03:07:32;22.00;99.90
18773;DHT22;9515;50.810;4.418;2022-08-02T03:09:58;21.90;99.90
18773;DHT22;9515;50.810;4.418;2022-08-02T03:12:24;21.90;99.90
18773;DHT22;9515;50.810;4.418;2022-08-02T03:14:50;21.90;99.90
18773;DHT22;9515;50.810;4.418;2022-08-02T03:17:16;21.80;99.90
18773;DHT22;9515;50.810;4.418;2022-08-02T03:19:41;21.90;99.90
18773;DHT22;9515;50.810;4.418;2022-08-02T03:22:07;22.00;99.90
18773;DHT22;9515;50.810;4.418;2022-08-02T03:24:33;22.00;99.90
18773;DHT22;9515;50.810;4.418;2022-08-02T03:26:59;22.10;99.90
18773;DHT22;9515;50.810;4.418;2022-08-02T03:29:24;22.10;99.90
18773;DHT22;9515;50.810;4.418;2022-08-02T03:31:50;22.20;99.90
18773;DHT22;9515;50.810;4.418;2022-08-02T03:34:17;22.30;99.90
18773;DHT22;9515;50.810;4.418;2022-08-02T03:36:42;22.30;99.90
18773;DHT22;9515;50.810;4.418;2022-08-02T03:39:11;22.20;99.90
18773;DHT22;9515;50.810;4.418;2022-08-02T03:41:38;22.20;99.90
18773;DHT22;9515;50.810;4.418;2022-08-02T03:44:04;22.30;99.90
18773;DHT22;9515;50.810;4.418;2022-08-02T03:46:32;22.20;99.90
18773;DHT22;9515;50.810;4.418;2022-08-02T03:48:58;22.20;99.90
18773;DHT22;9515;50.810;4.418;2022-08-02T03:51:24;22.10;99.90
18773;DHT22;9515;50.810;4.418;2022-08-02T03:53:49;22.10;99.90
18773;DHT22;9515;50.810;4.418;2022-08-02T03:56:16;22.20;99.90
18773;DHT22;9515;50.810;4.418;2022-08-02T03:58:41;22.20;99.90
18773;DHT22;9515;50.810;4.418;2022-08-02T04:01:07;22.00;99.90
18773;DHT22;9515;50.810;4.418;2022-08-02T04:03:33;22.10;99.90
18773;DHT22;9515;50.810;4.418;2022-08-02T04:05:58;22.10;99.90
18773;DHT22;9515;50.810;4.418;2022-08-02T04:08:24;22.10;99.90
18773;DHT22;9515;50.810;4.418;2022-08-02T04:10:50;22.10;99.90
18773;DHT22;9515;50.810;4.418;2022-08-02T04:13:36;22.30;99.90
18773;DHT22;9515;50.810;4.418;2022-08-02T04:18:35;22.20;99.90
18773;DHT22;9515;50.810;4.418;2022-08-02T04:21:04;22.20;99.90
18773;DHT22;9515;50.810;4.418;2022-08-02T04:23:32;21.90;99.90
18773;DHT22;9515;50.810;4.418;2022-08-02T04:26:00;21.80;99.90
18773;DHT22;9515;50.810;4.418;2022-08-02T04:28:28;21.80;99.90
18773;DHT22;9515;50.810;4.418;2022-08-02T04:30:55;21.60;99.90
18773;DHT22;9515;50.810;4.418;2022-08-02T04:33:22;21.60;99.90
18773;DHT22;9515;50.810;4.418;2022-08-02T04:35:48;21.70;99.90
18773;DHT22;9515;50.810;4.418;2022-08-02T04:38:14;21.90;99.90
18773;DHT22;9515;50.810;4.418;2022-08-02T04:40:52;21.90;99.90
18773;DHT22;9515;50.810;4.418;2022-08-02T04:43:18;22.00;99.90
18773;DHT22;9515;50.810;4.418;2022-08-02T04:45:44;22.00;99.90
18773;DHT22;9515;50.810;4.418;2022-08-02T04:48:10;22.20;99.90
18773;DHT22;9515;50.810;4.418;2022-08-02T04:50:36;22.10;99.90
18773;DHT22;9515;50.810;4.418;2022-08-02T04:53:02;22.10;99.90
18773;DHT22;9515;50.810;4.418;2022-08-02T04:55:27;22.20;99.90
18773;DHT22;9515;50.810;4.418;2022-08-02T04:57:54;22.40;99.90
18773;DHT22;9515;50.810;4.418;2022-08-02T05:00:20;22.40;99.90
18773;DHT22;9515;50.810;4.418;2022-08-02T05:02:46;22.40;99.90
18773;DHT22;9515;50.810;4.418;2022-08-02T05:05:12;22.30;99.90
18773;DHT22;9515;50.810;4.418;2022-08-02T05:07:37;22.30;99.90
18773;DHT22;9515;50.810;4.418;2022-08-02T05:10:03;22.30;99.90
18773;DHT22;9515;50.810;4.418;2022-08-02T05:12:29;22.40;99.90
18773;DHT22;9515;50.810;4.418;2022-08-02T05:14:55;22.50;99.90
18773;DHT22;9515;50.810;4.418;2022-08-02T05:17:20;22.50;99.90
18773;DHT22;9515;50.810;4.418;2022-08-02T05:19:46;22.50;99.90
18773;DHT22;9515;50.810;4.418;2022-08-02T05:22:12;22.50;99.90
18773;DHT22;9515;50.810;4.418;2022-08-02T05:24:37;22.70;99.90
18773;DHT22;9515;50.810;4.418;2022-08-02T05:27:03;22.80;99.90
18773;DHT22;9515;50.810;4.418;2022-08-02T05:29:29;23.00;99.90
18773;DHT22;9515;50.810;4.418;2022-08-02T05:31:54;23.20;99.90
18773;DHT22;9515;50.810;4.418;2022-08-02T05:34:20;23.40;99.90
18773;DHT22;9515;50.810;4.418;2022-08-02T05:36:46;23.70;99.90
18773;DHT22;9515;50.810;4.418;2022-08-02T05:39:11;23.40;99.90
18773;DHT22;9515;50.810;4.418;2022-08-02T05:41:37;23.00;99.90
18773;DHT22;9515;50.810;4.418;2022-08-02T05:44:03;23.20;99.90
18773;DHT22;9515;50.810;4.418;2022-08-02T05:46:29;22.90;99.90
18773;DHT22;9515;50.810;4.418;2022-08-02T05:48:54;23.20;99.90
18773;DHT22;9515;50.810;4.418;2022-08-02T05:51:29;23.50;99.90
18773;DHT22;9515;50.810;4.418;2022-08-02T05:54:30;23.60;99.90
18773;DHT22;9515;50.810;4.418;2022-08-02T05:57:13;23.80;99.90
18773;DHT22;9515;50.810;4.418;2022-08-02T06:06:04;24.90;99.90
18773;DHT22;9515;50.810;4.418;2022-08-02T06:08:37;25.30;99.90
18773;DHT22;9515;50.810;4.418;2022-08-02T06:11:05;25.40;99.90
18773;DHT22;9515;50.810;4.418;2022-08-02T06:13:32;25.40;99.90
18773;DHT22;9515;50.810;4.418;2022-08-02T06:15:59;25.50;99.90
18773;DHT22;9515;50.810;4.418;2022-08-02T06:18:26;25.70;99.90
18773;DHT22;9515;50.810;4.418;2022-08-02T06:20:57;26.00;99.90
18773;DHT22;9515;50.810;4.418;2022-08-02T06:23:25;26.20;99.90
18773;DHT22;9515;50.810;4.418;2022-08-02T06:25:52;26.70;99.90
18773;DHT22;9515;50.810;4.418;2022-08-02T06:28:19;26.70;99.90
18773;DHT22;9515;50.810;4.418;2022-08-02T06:30:45;26.80;99.90
18773;DHT22;9515;50.810;4.418;2022-08-02T06:33:11;27.10;99.90
18773;DHT22;9515;50.810;4.418;2022-08-02T06:36:00;27.20;99.90
18773;DHT22;9515;50.810;4.418;2022-08-02T06:38:32;27.70;99.90
18773;DHT22;9515;50.810;4.418;2022-08-02T06:41:12;27.70;99.90
18773;DHT22;9515;50.810;4.418;2022-08-02T06:44:00;27.70;99.90
18773;DHT22;9515;50.810;4.418;2022-08-02T06:46:26;28.10;99.90
18773;DHT22;9515;50.810;4.418;2022-08-02T06:48:53;28.70;99.90
18773;DHT22;9515;50.810;4.418;2022-08-02T06:51:19;29.10;99.90
18773;DHT22;9515;50.810;4.418;2022-08-02T06:53:45;29.40;99.90
18773;DHT22;9515;50.810;4.418;2022-08-02T06:56:11;29.10;99.90
18773;DHT22;9515;50.810;4.418;2022-08-02T06:58:37;28.80;99.90
18773;DHT22;9515;50.810;4.418;2022-08-02T07:01:03;28.10;99.90
18773;DHT22;9515;50.810;4.418;2022-08-02T07:03:36;28.10;99.90
18773;DHT22;9515;50.810;4.418;2022-08-02T07:06:02;28.20;99.90
18773;DHT22;9515;50.810;4.418;2022-08-02T07:08:28;28.00;99.90
18773;DHT22;9515;50.810;4.418;2022-08-02T07:10:59;27.60;99.90
18773;DHT22;9515;50.810;4.418;2022-08-02T07:13:26;27.70;99.90
18773;DHT22;9515;50.810;4.418;2022-08-02T07:15:52;28.00;99.90
18773;DHT22;9515;50.810;4.418;2022-08-02T07:18:18;28.00;99.90
18773;DHT22;9515;50.810;4.418;2022-08-02T07:20:44;28.30;99.90
18773;DHT22;9515;50.810;4.418;2022-08-02T07:23:10;28.10;99.90
18773;DHT22;9515;50.810;4.418;2022-08-02T07:25:36;28.40;99.90
18773;DHT22;9515;50.810;4.418;2022-08-02T07:28:02;28.70;99.90
18773;DHT22;9515;50.810;4.418;2022-08-02T07:30:28;28.50;99.90
18773;DHT22;9515;50.810;4.418;2022-08-02T07:32:54;28.50;99.90
18773;DHT22;9515;50.810;4.418;2022-08-02T07:35:20;28.30;99.90
18773;DHT22;9515;50.810;4.418;2022-08-02T07:37:46;28.90;99.90
18773;DHT22;9515;50.810;4.418;2022-08-02T07:40:13;29.40;99.90
18773;DHT22;9515;50.810;4.418;2022-08-02T07:42:39;29.40;99.90
18773;DHT22;9515;50.810;4.418;2022-08-02T07:45:05;28.90;99.90
18773;DHT22;9515;50.810;4.418;2022-08-02T07:47:31;29.00;99.90
18773;DHT22;9515;50.810;4.418;2022-08-02T07:49:56;29.30;99.90
18773;DHT22;9515;50.810;4.418;2022-08-02T07:52:22;29.40;99.90
18773;DHT22;9515;50.810;4.418;2022-08-02T07:54:48;28.80;99.90
18773;DHT22;9515;50.810;4.418;2022-08-02T07:57:13;28.20;99.90
18773;DHT22;9515;50.810;4.418;2022-08-02T07:59:39;27.30;99.90
18773;DHT22;9515;50.810;4.418;2022-08-02T08:02:05;27.40;99.90
18773;DHT22;9515;50.810;4.418;2022-08-02T08:04:30;27.90;99.90
18773;DHT22;9515;50.810;4.418;2022-08-02T08:06:56;28.90;99.90
18773;DHT22;9515;50.810;4.418;2022-08-02T08:09:22;29.70;99.90
18773;DHT22;9515;50.810;4.418;2022-08-02T08:11:48;29.20;99.90
18773;DHT22;9515;50.810;4.418;2022-08-02T08:14:14;28.50;99.90
18773;DHT22;9515;50.810;4.418;2022-08-02T08:16:39;28.90;99.90
18773;DHT22;9515;50.810;4.418;2022-08-02T08:19:05;29.30;99.90
18773;DHT22;9515;50.810;4.418;2022-08-02T08:21:31;29.90;99.90
18773;DHT22;9515;50.810;4.418;2022-08-02T08:23:59;30.10;99.90
18773;DHT22;9515;50.810;4.418;2022-08-02T08:26:24;30.30;99.90
18773;DHT22;9515;50.810;4.418;2022-08-02T08:28:51;30.00;99.90
18773;DHT22;9515;50.810;4.418;2022-08-02T08:31:16;29.80;99.90
18773;DHT22;9515;50.810;4.418;2022-08-02T08:33:43;29.30;99.90
18773;DHT22;9515;50.810;4.418;2022-08-02T08:36:08;29.90;99.90
18773;DHT22;9515;50.810;4.418;2022-08-02T08:38:34;30.80;99.90
18773;DHT22;9515;50.810;4.418;2022-08-02T08:41:00;31.00;99.90
18773;DHT22;9515;50.810;4.418;2022-08-02T08:43:26;31.10;99.90
18773;DHT22;9515;50.810;4.418;2022-08-02T08:45:52;30.60;99.90
18773;DHT22;9515;50.810;4.418;2022-08-02T08:48:18;31.00;99.90
18773;DHT22;9515;50.810;4.418;2022-08-02T08:50:53;31.10;99.90
18773;DHT22;9515;50.810;4.418;2022-08-02T08:53:23;31.60;99.90
18773;DHT22;9515;50.810;4.418;2022-08-02T08:55:52;32.20;99.90
18773;DHT22;9515;50.810;4.418;2022-08-02T08:58:21;32.50;99.90
18773;DHT22;9515;50.810;4.418;2022-08-02T09:00:46;32.60;99.90
18773;DHT22;9515;50.810;4.418;2022-08-02T09:03:12;32.00;99.90
18773;DHT22;9515;50.810;4.418;2022-08-02T09:05:39;32.80;99.90
18773;DHT22;9515;50.810;4.418;2022-08-02T09:08:06;32.20;99.90
18773;DHT22;9515;50.810;4.418;2022-08-02T09:10:46;31.00;99.90
18773;DHT22;9515;50.810;4.418;2022-08-02T09:13:21;31.00;99.90
18773;DHT22;9515;50.810;4.418;2022-08-02T09:18:38;31.20;99.90
18773;DHT22;9515;50.810;4.418;2022-08-02T09:21:11;30.40;99.90
18773;DHT22;9515;50.810;4.418;2022-08-02T09:23:40;31.00;99.90
18773;DHT22;9515;50.810;4.418;2022-08-02T09:26:10;31.40;99.90
18773;DHT22;9515;50.810;4.418;2022-08-02T09:28:38;31.40;99.90
18773;DHT22;9515;50.810;4.418;2022-08-02T09:33:37;32.50;99.90
18773;DHT22;9515;50.810;4.418;2022-08-02T09:36:05;33.40;99.90
18773;DHT22;9515;50.810;4.418;2022-08-02T09:38:31;34.20;99.90
18773;DHT22;9515;50.810;4.418;2022-08-02T09:40:58;33.70;99.90
18773;DHT22;9515;50.810;4.418;2022-08-02T09:43:41;33.80;99.90
18773;DHT22;9515;50.810;4.418;2022-08-02T09:48:55;32.50;99.90
18773;DHT22;9515;50.810;4.418;2022-08-02T09:51:21;31.80;99.90
18773;DHT22;9515;50.810;4.418;2022-08-02T09:53:49;31.60;99.90
18773;DHT22;9515;50.810;4.418;2022-08-02T09:56:16;32.40;99.90
18773;DHT22;9515;50.810;4.418;2022-08-02T09:58:42;33.20;99.90
18773;DHT22;9515;50.810;4.418;2022-08-02T10:01:08;33.90;99.90
18773;DHT22;9515;50.810;4.418;2022-08-02T10:03:34;34.50;99.90
18773;DHT22;9515;50.810;4.418;2022-08-02T10:06:00;34.80;99.90
18773;DHT22;9515;50.810;4.418;2022-08-02T10:08:28;34.50;99.90
18773;DHT22;9515;50.810;4.418;2022-08-02T10:10:57;34.60;99.90
18773;DHT22;9515;50.810;4.418;2022-08-02T10:13:32;35.20;99.90
18773;DHT22;9515;50.810;4.418;2022-08-02T10:15:58;35.60;99.90
18773;DHT22;9515;50.810;4.418;2022-08-02T10:18:25;36.40;99.90
18773;DHT22;9515;50.810;4.418;2022-08-02T10:20:55;36.80;99.90
18773;DHT22;9515;50.810;4.418;2022-08-02T10:23:23;36.80;99.90
18773;DHT22;9515;50.810;4.418;2022-08-02T10:25:50;37.20;99.90
18773;DHT22;9515;50.810;4.418;2022-08-02T10:28:17;36.40;99.90
18773;DHT22;9515;50.810;4.418;2022-08-02T10:30:45;35.60;99.90
18773;DHT22;9515;50.810;4.418;2022-08-02T10:33:16;33.90;99.90
18773;DHT22;9515;50.810;4.418;2022-08-02T10:35:44;32.80;99.90
18773;DHT22;9515;50.810;4.418;2022-08-02T10:38:12;32.10;99.90
18773;DHT22;9515;50.810;4.418;2022-08-02T10:40:48;32.10;99.90
18773;DHT22;9515;50.810;4.418;2022-08-02T10:49:16;33.10;99.90
18773;DHT22;9515;50.810;4.418;2022-08-02T10:54:28;33.70;99.90
18773;DHT22;9515;50.810;4.418;2022-08-02T10:56:57;34.00;99.90
18773;DHT22;9515;50.810;4.418;2022-08-02T11:01:58;33.20;99.90
18773;DHT22;9515;50.810;4.418;2022-08-02T11:09:32;34.70;99.90
18773;DHT22;9515;50.810;4.418;2022-08-02T11:12:09;34.30;99.90
18773;DHT22;9515;50.810;4.418;2022-08-02T11:14:37;34.30;99.90
18773;DHT22;9515;50.810;4.418;2022-08-02T11:19:30;35.50;99.90
18773;DHT22;9515;50.810;4.418;2022-08-02T11:22:09;36.70;99.90
18773;DHT22;9515;50.810;4.418;2022-08-02T11:24:37;37.40;98.50
18773;DHT22;9515;50.810;4.418;2022-08-02T11:27:07;37.50;98.60
18773;DHT22;9515;50.810;4.418;2022-08-02T11:29:44;37.30;98.30
18773;DHT22;9515;50.810;4.418;2022-08-02T11:32:21;37.10;97.90
18773;DHT22;9515;50.810;4.418;2022-08-02T11:34:49;37.60;97.20
18773;DHT22;9515;50.810;4.418;2022-08-02T11:37:35;38.70;96.70
18773;DHT22;9515;50.810;4.418;2022-08-02T11:40:07;39.00;96.60
18773;DHT22;9515;50.810;4.418;2022-08-02T11:42:39;39.80;95.80
18773;DHT22;9515;50.810;4.418;2022-08-02T11:45:07;38.90;95.20
18773;DHT22;9515;50.810;4.418;2022-08-02T11:47:50;37.90;96.40
18773;DHT22;9515;50.810;4.418;2022-08-02T11:50:16;37.30;96.10
18773;DHT22;9515;50.810;4.418;2022-08-02T11:52:46;37.30;96.30
18773;DHT22;9515;50.810;4.418;2022-08-02T11:55:12;38.10;95.80
18773;DHT22;9515;50.810;4.418;2022-08-02T11:57:38;38.40;96.30
18773;DHT22;9515;50.810;4.418;2022-08-02T12:00:16;38.10;96.90
18773;DHT22;9515;50.810;4.418;2022-08-02T12:02:46;38.30;96.80
18773;DHT22;9515;50.810;4.418;2022-08-02T12:05:17;38.50;96.10
18773;DHT22;9515;50.810;4.418;2022-08-02T12:07:44;38.30;96.20
18773;DHT22;9515;50.810;4.418;2022-08-02T12:10:19;38.50;96.70
18773;DHT22;9515;50.810;4.418;2022-08-02T12:12:47;38.00;97.20
18773;DHT22;9515;50.810;4.418;2022-08-02T12:15:13;38.20;96.70
18773;DHT22;9515;50.810;4.418;2022-08-02T12:17:45;37.70;97.00
18773;DHT22;9515;50.810;4.418;2022-08-02T12:20:36;37.40;97.50
18773;DHT22;9515;50.810;4.418;2022-08-02T12:23:02;37.50;97.40
18773;DHT22;9515;50.810;4.418;2022-08-02T12:25:28;36.70;97.00
18773;DHT22;9515;50.810;4.418;2022-08-02T12:28:14;36.40;97.80
18773;DHT22;9515;50.810;4.418;2022-08-02T12:30:51;36.10;97.70
18773;DHT22;9515;50.810;4.418;2022-08-02T12:33:18;35.20;98.60
18773;DHT22;9515;50.810;4.418;2022-08-02T12:35:44;35.00;99.10
18773;DHT22;9515;50.810;4.418;2022-08-02T12:38:10;35.50;98.90
18773;DHT22;9515;50.810;4.418;2022-08-02T12:40:37;36.50;98.80
18773;DHT22;9515;50.810;4.418;2022-08-02T12:43:04;37.70;97.30
18773;DHT22;9515;50.810;4.418;2022-08-02T12:45:51;38.30;97.00
18773;DHT22;9515;50.810;4.418;2022-08-02T12:48:37;39.30;96.40
18773;DHT22;9515;50.810;4.418;2022-08-02T12:53:43;40.20;95.80
18773;DHT22;9515;50.810;4.418;2022-08-02T12:56:10;40.70;95.00
18773;DHT22;9515;50.810;4.418;2022-08-02T12:58:49;40.20;94.80
18773;DHT22;9515;50.810;4.418;2022-08-02T13:01:23;40.60;94.60
18773;DHT22;9515;50.810;4.418;2022-08-02T13:03:49;39.90;94.70
18773;DHT22;9515;50.810;4.418;2022-08-02T13:06:16;40.00;95.40
18773;DHT22;9515;50.810;4.418;2022-08-02T13:08:42;40.90;94.10
18773;DHT22;9515;50.810;4.418;2022-08-02T13:11:07;40.80;94.80
18773;DHT22;9515;50.810;4.418;2022-08-02T13:13:33;40.60;94.50
18773;DHT22;9515;50.810;4.418;2022-08-02T13:15:59;40.50;94.60
18773;DHT22;9515;50.810;4.418;2022-08-02T13:18:25;40.70;95.00
18773;DHT22;9515;50.810;4.418;2022-08-02T13:20:50;40.40;95.10
18773;DHT22;9515;50.810;4.418;2022-08-02T13:23:16;40.80;95.00
18773;DHT22;9515;50.810;4.418;2022-08-02T13:25:42;40.30;95.00
18773;DHT22;9515;50.810;4.418;2022-08-02T13:28:09;40.70;95.00
18773;DHT22;9515;50.810;4.418;2022-08-02T13:30:35;41.50;94.40
18773;DHT22;9515;50.810;4.418;2022-08-02T13:33:01;41.60;94.20
18773;DHT22;9515;50.810;4.418;2022-08-02T13:35:26;41.50;94.10
18773;DHT22;9515;50.810;4.418;2022-08-02T13:37:52;41.50;94.50
18773;DHT22;9515;50.810;4.418;2022-08-02T13:40:18;41.70;94.50
18773;DHT22;9515;50.810;4.418;2022-08-02T13:42:44;42.10;94.20
18773;DHT22;9515;50.810;4.418;2022-08-02T13:45:10;42.60;93.60
18773;DHT22;9515;50.810;4.418;2022-08-02T13:47:39;42.70;93.50
18773;DHT22;9515;50.810;4.418;2022-08-02T13:50:06;42.30;93.50
18773;DHT22;9515;50.810;4.418;2022-08-02T13:52:32;41.80;93.90
18773;DHT22;9515;50.810;4.418;2022-08-02T13:54:57;42.00;94.50
18773;DHT22;9515;50.810;4.418;2022-08-02T13:57:23;41.70;94.00
18773;DHT22;9515;50.810;4.418;2022-08-02T13:59:50;41.90;94.20
18773;DHT22;9515;50.810;4.418;2022-08-02T14:02:16;42.60;93.80
18773;DHT22;9515;50.810;4.418;2022-08-02T14:04:42;43.10;93.50
18773;DHT22;9515;50.810;4.418;2022-08-02T14:07:08;43.10;93.40
18773;DHT22;9515;50.810;4.418;2022-08-02T14:09:33;42.10;93.70
18773;DHT22;9515;50.810;4.418;2022-08-02T14:12:04;42.20;93.80
18773;DHT22;9515;50.810;4.418;2022-08-02T14:14:30;41.40;94.30
18773;DHT22;9515;50.810;4.418;2022-08-02T14:16:56;41.10;94.00
18773;DHT22;9515;50.810;4.418;2022-08-02T14:19:23;39.60;95.30
18773;DHT22;9515;50.810;4.418;2022-08-02T14:21:49;39.40;95.60
18773;DHT22;9515;50.810;4.418;2022-08-02T14:24:16;38.20;96.30
18773;DHT22;9515;50.810;4.418;2022-08-02T14:26:54;37.60;97.10
18773;DHT22;9515;50.810;4.418;2022-08-02T14:29:20;37.00;96.80
18773;DHT22;9515;50.810;4.418;2022-08-02T14:31:47;36.10;97.60
18773;DHT22;9515;50.810;4.418;2022-08-02T14:34:12;35.20;98.70
18773;DHT22;9515;50.810;4.418;2022-08-02T14:36:38;34.90;99.50
18773;DHT22;9515;50.810;4.418;2022-08-02T14:39:04;34.70;99.90
18773;DHT22;9515;50.810;4.418;2022-08-02T14:41:30;34.50;99.90
18773;DHT22;9515;50.810;4.418;2022-08-02T14:43:58;34.10;99.90
18773;DHT22;9515;50.810;4.418;2022-08-02T14:46:37;33.80;99.90
18773;DHT22;9515;50.810;4.418;2022-08-02T14:49:05;33.80;99.90
18773;DHT22;9515;50.810;4.418;2022-08-02T14:51:33;33.50;99.90
18773;DHT22;9515;50.810;4.418;2022-08-02T14:53:59;33.30;99.90
18773;DHT22;9515;50.810;4.418;2022-08-02T14:56:25;33.50;99.90
18773;DHT22;9515;50.810;4.418;2022-08-02T14:58:51;33.10;99.90
18773;DHT22;9515;50.810;4.418;2022-08-02T15:01:17;32.90;99.90
18773;DHT22;9515;50.810;4.418;2022-08-02T15:03:42;33.00;99.90
18773;DHT22;9515;50.810;4.418;2022-08-02T15:06:08;32.90;99.90
18773;DHT22;9515;50.810;4.418;2022-08-02T15:08:34;33.10;99.90
18773;DHT22;9515;50.810;4.418;2022-08-02T15:10:59;32.90;99.90
18773;DHT22;9515;50.810;4.418;2022-08-02T15:13:25;33.10;99.90
18773;DHT22;9515;50.810;4.418;2022-08-02T15:15:51;33.20;99.90
18773;DHT22;9515;50.810;4.418;2022-08-02T15:18:16;33.00;99.90
18773;DHT22;9515;50.810;4.418;2022-08-02T15:20:42;32.60;99.90
18773;DHT22;9515;50.810;4.418;2022-08-02T15:23:07;32.80;99.90
18773;DHT22;9515;50.810;4.418;2022-08-02T15:25:34;32.70;99.90
18773;DHT22;9515;50.810;4.418;2022-08-02T15:28:00;32.70;99.90
18773;DHT22;9515;50.810;4.418;2022-08-02T15:30:26;32.50;99.90
18773;DHT22;9515;50.810;4.418;2022-08-02T15:32:51;32.70;99.90
18773;DHT22;9515;50.810;4.418;2022-08-02T15:35:17;32.60;99.90
18773;DHT22;9515;50.810;4.418;2022-08-02T15:37:43;32.30;99.90
18773;DHT22;9515;50.810;4.418;2022-08-02T15:40:09;32.40;99.90
18773;DHT22;9515;50.810;4.418;2022-08-02T15:42:35;32.30;99.90
18773;DHT22;9515;50.810;4.418;2022-08-02T15:45:00;32.20;99.90
18773;DHT22;9515;50.810;4.418;2022-08-02T15:47:26;32.40;99.90
18773;DHT22;9515;50.810;4.418;2022-08-02T15:49:52;32.20;99.90
18773;DHT22;9515;50.810;4.418;2022-08-02T15:52:17;32.40;99.90
18773;DHT22;9515;50.810;4.418;2022-08-02T15:54:43;32.40;99.90
18773;DHT22;9515;50.810;4.418;2022-08-02T15:57:09;32.30;99.90
18773;DHT22;9515;50.810;4.418;2022-08-02T15:59:34;32.40;99.90
18773;DHT22;9515;50.810;4.418;2022-08-02T16:02:00;32.50;99.90
18773;DHT22;9515;50.810;4.418;2022-08-02T16:04:26;32.30;99.90
18773;DHT22;9515;50.810;4.418;2022-08-02T16:06:52;32.20;99.90
18773;DHT22;9515;50.810;4.418;2022-08-02T16:09:17;32.10;99.90
18773;DHT22;9515;50.810;4.418;2022-08-02T16:11:43;32.20;99.90
18773;DHT22;9515;50.810;4.418;2022-08-02T16:14:08;32.20;99.90
18773;DHT22;9515;50.810;4.418;2022-08-02T16:16:35;32.30;99.90
18773;DHT22;9515;50.810;4.418;2022-08-02T16:19:03;32.20;99.90
18773;DHT22;9515;50.810;4.418;2022-08-02T16:21:29;32.30;99.90
18773;DHT22;9515;50.810;4.418;2022-08-02T16:23:55;32.30;99.90
18773;DHT22;9515;50.810;4.418;2022-08-02T16:26:21;32.40;99.90
18773;DHT22;9515;50.810;4.418;2022-08-02T16:28:50;32.20;99.90
18773;DHT22;9515;50.810;4.418;2022-08-02T16:31:16;32.20;99.90
18773;DHT22;9515;50.810;4.418;2022-08-02T16:33:42;32.10;99.90
18773;DHT22;9515;50.810;4.418;2022-08-02T16:36:10;32.00;99.90
18773;DHT22;9515;50.810;4.418;2022-08-02T16:38:36;31.70;99.90
18773;DHT22;9515;50.810;4.418;2022-08-02T16:41:02;31.70;99.90